Terminal Aerodrome Forecast
Issued by NWS

Home | Current Version | Previous Version | Text Only | Print | Product List | Glossary On
Versions: 1 2 3 4 5 6 7 8 9 10 11 12 13 14 15 16 17 18 19 20 21 22 23 24 25 26 27 28 29 30 31 32 33 34 35 36 37 38
000
FTUS45 KPSR 011528 AAB
TAFIWA
TAF AMD
KIWA 011528Z 0115/0212 VRB05KT P6SM SCT080 SCT220
     FM012300 26008KT P6SM BKN070 BKN150
     FM020200 29010KT P6SM VCTS SCT080CB SCT120 BKN250=

USA.gov is the U.S. government's official web portal to all federal, state and local government web resources and services.